Time;durP1;ratioP1;P1;durP2;ratioP2;P2;SDS_P1;SDS_P2;PMS_P1;PMS_P2;Temp;Humidity;BMP_temperature;BMP_pressure;BME280_temperature;BME280_humidity;BME280_pressure;Samples;Min_cycle;Max_cycle;Signal;HPM_P1;HPM_P2
2023/04/17 00:02:12;;;;;;;13.65;11.35;;;10.60;99.90;;;;;;5031034;28;20391;-44
2023/04/17 00:04:39;;;;;;;16.52;11.48;;;10.60;99.90;;;;;;5031526;28;20039;-44
2023/04/17 00:07:05;;;;;;;14.30;11.52;;;10.60;99.90;;;;;;5030608;28;20022;-42
2023/04/17 00:09:31;;;;;;;18.00;12.10;;;10.60;99.90;;;;;;5030920;28;20029;-44
2023/04/17 00:11:56;;;;;;;17.48;13.35;;;10.60;99.90;;;;;;5030958;28;20084;-42
2023/04/17 00:14:22;;;;;;;15.98;11.35;;;10.50;99.90;;;;;;5031049;28;20072;-44
2023/04/17 00:16:48;;;;;;;15.82;11.32;;;10.60;99.90;;;;;;5030863;28;20017;-46
2023/04/17 00:19:14;;;;;;;18.10;12.45;;;10.60;99.90;;;;;;5031609;28;20108;-44
2023/04/17 00:21:39;;;;;;;17.98;12.07;;;10.60;99.90;;;;;;5032117;28;20025;-45
2023/04/17 00:24:05;;;;;;;15.73;11.57;;;10.60;99.90;;;;;;5031415;28;20041;-44
2023/04/17 00:26:33;;;;;;;14.57;11.65;;;10.60;99.90;;;;;;5030204;28;20057;-42
2023/04/17 00:28:59;;;;;;;19.15;13.18;;;10.60;99.90;;;;;;5034227;28;20033;-46
2023/04/17 00:31:25;;;;;;;15.63;11.73;;;10.60;99.90;;;;;;5034738;28;20563;-44
2023/04/17 00:33:51;;;;;;;17.15;12.50;;;10.60;99.90;;;;;;5035835;28;20084;-44
2023/04/17 00:36:17;;;;;;;17.77;11.85;;;10.60;99.90;;;;;;5034092;28;20057;-47
2023/04/17 00:38:43;;;;;;;17.48;12.68;;;10.60;99.90;;;;;;5035562;28;20064;-44
2023/04/17 00:41:10;;;;;;;16.65;11.55;;;10.60;99.90;;;;;;5034853;28;20017;-44
2023/04/17 00:43:36;;;;;;;17.42;12.20;;;10.60;99.90;;;;;;5035021;28;20022;-44
2023/04/17 00:46:03;;;;;;;16.63;12.68;;;10.60;99.90;;;;;;5034934;28;20036;-46
2023/04/17 00:48:29;;;;;;;16.52;12.07;;;10.60;99.90;;;;;;5034835;28;20034;-44
2023/04/17 00:50:55;;;;;;;15.65;11.65;;;10.60;99.90;;;;;;5035358;28;20044;-44
2023/04/17 00:53:21;;;;;;;16.80;12.50;;;10.50;99.90;;;;;;5035521;28;20026;-43
2023/04/17 00:55:50;;;;;;;16.70;12.38;;;10.60;99.90;;;;;;5035010;28;20033;-44
2023/04/17 00:58:17;;;;;;;16.98;11.90;;;10.60;99.90;;;;;;5035326;28;20026;-44
2023/04/17 01:00:43;;;;;;;16.85;12.05;;;10.60;99.90;;;;;;5034206;28;20021;-43
2023/04/17 01:03:09;;;;;;;15.18;11.27;;;10.60;99.90;;;;;;5034017;28;20037;-44
2023/04/17 01:05:37;;;;;;;15.43;11.82;;;10.60;99.90;;;;;;5033727;28;20039;-46
2023/04/17 01:08:02;;;;;;;16.20;11.77;;;10.60;99.90;;;;;;5034263;28;20033;-44
2023/04/17 01:10:28;;;;;;;15.75;12.35;;;10.60;99.90;;;;;;5035393;28;20418;-43
2023/04/17 01:13:06;;;;;;;14.95;11.70;;;10.60;99.90;;;;;;5033840;28;20026;-44
2023/04/17 01:15:33;;;;;;;16.02;11.07;;;10.60;99.90;;;;;;5033845;28;20018;-42
2023/04/17 01:17:59;;;;;;;16.40;11.88;;;10.60;99.90;;;;;;5033964;28;20079;-44
2023/04/17 01:20:28;;;;;;;17.70;11.77;;;10.60;99.90;;;;;;5035468;28;20029;-44
2023/04/17 01:22:54;;;;;;;16.48;12.07;;;10.60;99.90;;;;;;5034720;28;20017;-46
2023/04/17 01:25:20;;;;;;;16.02;11.70;;;10.60;99.90;;;;;;5034055;28;20096;-44
2023/04/17 01:27:46;;;;;;;16.48;12.30;;;10.60;99.90;;;;;;5033507;28;20392;-42
2023/04/17 01:30:12;;;;;;;17.20;11.80;;;10.60;99.90;;;;;;5034226;28;20021;-44
2023/04/17 01:32:38;;;;;;;16.80;12.52;;;10.60;99.90;;;;;;5032968;28;20025;-46
2023/04/17 01:35:04;;;;;;;16.35;12.70;;;10.60;99.90;;;;;;5035154;28;20068;-46
2023/04/17 01:37:30;;;;;;;16.63;12.07;;;10.60;99.90;;;;;;5033546;28;20021;-44
2023/04/17 01:39:57;;;;;;;14.70;11.38;;;10.60;99.90;;;;;;5033892;28;20032;-41
2023/04/17 01:42:23;;;;;;;15.60;11.35;;;10.60;99.90;;;;;;5033607;28;20053;-46
2023/04/17 01:44:48;;;;;;;15.02;11.60;;;10.50;99.90;;;;;;5034393;28;20068;-45
2023/04/17 01:47:14;;;;;;;16.42;11.55;;;10.60;99.90;;;;;;5034212;28;20037;-42
2023/04/17 01:49:40;;;;;;;14.90;10.98;;;10.60;99.90;;;;;;5033978;28;20072;-46
2023/04/17 01:52:05;;;;;;;16.85;12.07;;;10.60;99.90;;;;;;5034202;28;20025;-44
2023/04/17 01:54:31;;;;;;;14.23;11.15;;;10.50;99.90;;;;;;5033976;28;20108;-42
2023/04/17 01:56:57;;;;;;;16.25;10.98;;;10.50;99.90;;;;;;5032678;28;20626;-44
2023/04/17 01:59:23;;;;;;;14.52;11.57;;;10.60;99.90;;;;;;5033267;28;20128;-44
2023/04/17 02:01:50;;;;;;;14.40;11.35;;;10.60;99.90;;;;;;5033254;28;20030;-44
2023/04/17 02:04:15;;;;;;;14.02;11.10;;;10.50;99.90;;;;;;5033139;28;20051;-45
2023/04/17 02:06:41;;;;;;;16.15;11.60;;;10.60;99.90;;;;;;5032298;28;20387;-44
2023/04/17 02:09:07;;;;;;;16.08;11.43;;;10.60;99.90;;;;;;5034244;28;20037;-46
2023/04/17 02:11:33;;;;;;;16.58;11.82;;;10.60;99.90;;;;;;5034261;28;20083;-44
2023/04/17 02:14:00;;;;;;;14.52;11.13;;;10.50;99.90;;;;;;5033844;28;20029;-45
2023/04/17 02:16:27;;;;;;;14.05;10.48;;;10.50;99.90;;;;;;5032261;28;20018;-46
2023/04/17 02:18:53;;;;;;;15.32;11.13;;;10.60;99.90;;;;;;5034369;28;20029;-42
2023/04/17 02:21:20;;;;;;;14.05;11.02;;;10.60;99.90;;;;;;5033799;28;20029;-44
2023/04/17 02:23:47;;;;;;;13.63;10.82;;;10.50;99.90;;;;;;5032583;28;20071;-43
2023/04/17 02:26:12;;;;;;;15.18;11.30;;;10.60;99.90;;;;;;5033698;28;20531;-43
2023/04/17 02:28:38;;;;;;;15.55;11.02;;;10.50;99.90;;;;;;5033567;28;20096;-43
2023/04/17 02:31:08;;;;;;;16.13;11.13;;;10.60;99.90;;;;;;5033056;28;20347;-47
2023/04/17 02:33:37;;;;;;;16.00;11.10;;;10.60;99.90;;;;;;5033438;28;20033;-47
2023/04/17 02:36:07;;;;;;;16.30;11.02;;;10.50;99.90;;;;;;5032017;28;20060;-43
2023/04/17 02:38:32;;;;;;;15.00;11.25;;;10.50;99.90;;;;;;5033028;28;20441;-44
2023/04/17 02:40:58;;;;;;;16.20;12.15;;;10.50;99.90;;;;;;5033036;28;20026;-44
2023/04/17 02:43:24;;;;;;;18.63;11.68;;;10.60;99.90;;;;;;5032163;28;20030;-43
2023/04/17 02:45:50;;;;;;;13.88;11.05;;;10.60;99.90;;;;;;5032934;28;20075;-43
2023/04/17 02:48:16;;;;;;;15.40;12.00;;;10.50;99.90;;;;;;5032378;28;20472;-44
2023/04/17 02:50:42;;;;;;;15.20;11.25;;;10.50;99.90;;;;;;5031394;28;20514;-44
2023/04/17 02:53:08;;;;;;;15.00;10.68;;;10.60;99.90;;;;;;5033017;28;20029;-44
2023/04/17 02:55:34;;;;;;;15.15;11.60;;;10.50;99.90;;;;;;5031872;28;20495;-42
2023/04/17 02:57:59;;;;;;;15.93;11.27;;;10.60;99.90;;;;;;5031404;28;20057;-44
2023/04/17 03:00:26;;;;;;;15.25;11.52;;;10.60;99.90;;;;;;5032078;28;20372;-43
2023/04/17 03:02:52;;;;;;;17.38;11.75;;;10.50;99.90;;;;;;5032497;28;20029;-46
2023/04/17 03:05:19;;;;;;;15.25;12.00;;;10.50;99.90;;;;;;5033632;28;20526;-44
2023/04/17 03:07:44;;;;;;;16.73;11.43;;;10.50;99.90;;;;;;5032342;28;20076;-44
2023/04/17 03:10:11;;;;;;;19.20;12.88;;;10.50;99.90;;;;;;5032984;28;20048;-43
2023/04/17 03:12:36;;;;;;;16.27;11.73;;;10.50;99.90;;;;;;5032731;28;20399;-46
2023/04/17 03:15:02;;;;;;;15.25;11.88;;;10.50;99.90;;;;;;5031553;28;20027;-44
2023/04/17 03:17:28;;;;;;;14.73;10.93;;;10.50;99.90;;;;;;5031274;28;20029;-44
2023/04/17 03:19:53;;;;;;;14.25;11.05;;;10.50;99.90;;;;;;5032392;28;20468;-43
2023/04/17 03:22:19;;;;;;;15.55;12.00;;;10.50;99.90;;;;;;5032360;28;20021;-44
2023/04/17 03:24:44;;;;;;;16.45;12.18;;;10.50;99.90;;;;;;5032590;28;20033;-44
2023/04/17 03:27:10;;;;;;;14.70;11.23;;;10.50;99.90;;;;;;5031782;28;20041;-44
2023/04/17 03:29:36;;;;;;;15.25;11.50;;;10.50;99.90;;;;;;5032298;28;20040;-44
2023/04/17 03:32:01;;;;;;;14.18;10.82;;;10.50;99.90;;;;;;5033274;28;20466;-46
2023/04/17 03:34:28;;;;;;;15.32;11.70;;;10.50;99.90;;;;;;5032275;28;20107;-43
2023/04/17 03:36:54;;;;;;;16.42;12.10;;;10.60;99.90;;;;;;5031844;28;20064;-42
2023/04/17 03:39:20;;;;;;;17.20;12.43;;;10.50;99.90;;;;;;5032201;28;20021;-42
2023/04/17 03:41:46;;;;;;;16.75;12.18;;;10.60;99.90;;;;;;5032004;28;20026;-44
2023/04/17 03:44:11;;;;;;;16.33;12.15;;;10.50;99.90;;;;;;5032061;28;20030;-44
2023/04/17 03:46:37;;;;;;;17.60;12.00;;;10.60;99.90;;;;;;5030524;28;20040;-43
2023/04/17 03:49:03;;;;;;;16.05;12.30;;;10.50;99.90;;;;;;5031062;28;20018;-42
2023/04/17 03:51:30;;;;;;;16.25;12.23;;;10.50;99.90;;;;;;5031851;28;20029;-44
2023/04/17 03:53:56;;;;;;;17.45;12.13;;;10.50;99.90;;;;;;5031451;28;20387;-44
2023/04/17 03:56:24;;;;;;;17.17;12.68;;;10.60;99.90;;;;;;5031048;28;20029;-45
2023/04/17 03:58:50;;;;;;;16.23;11.98;;;10.60;99.90;;;;;;5031130;28;20071;-44
2023/04/17 04:01:18;;;;;;;19.55;12.55;;;10.50;99.90;;;;;;5030811;28;20061;-42
2023/04/17 04:03:44;;;;;;;17.45;12.07;;;10.50;99.90;;;;;;5031255;28;20045;-44
2023/04/17 04:06:09;;;;;;;16.20;12.30;;;10.50;99.90;;;;;;5030422;28;20026;-42
2023/04/17 04:08:35;;;;;;;17.23;12.13;;;10.50;99.90;;;;;;5030952;28;20021;-44
2023/04/17 04:11:02;;;;;;;17.88;13.13;;;10.50;99.90;;;;;;5031231;28;20529;-41
2023/04/17 04:13:27;;;;;;;16.20;12.32;;;10.50;99.90;;;;;;5030812;28;20156;-44
2023/04/17 04:15:53;;;;;;;16.40;12.35;;;10.50;99.90;;;;;;5031221;28;20130;-44
2023/04/17 04:18:18;;;;;;;18.83;12.27;;;10.50;99.90;;;;;;5031826;28;20017;-44
2023/04/17 04:20:44;;;;;;;16.02;11.82;;;10.50;99.90;;;;;;5031609;28;20021;-44
2023/04/17 04:23:09;;;;;;;16.73;12.43;;;10.50;99.90;;;;;;5032673;28;20057;-46
2023/04/17 04:25:40;;;;;;;15.38;12.32;;;10.50;99.90;;;;;;5030456;28;20440;-42
2023/04/17 04:28:06;;;;;;;16.52;12.00;;;10.50;99.90;;;;;;5030622;28;20022;-44
2023/04/17 04:30:34;;;;;;;15.93;11.70;;;10.60;99.90;;;;;;5030291;28;20068;-42
2023/04/17 04:33:02;;;;;;;17.95;12.02;;;10.50;99.90;;;;;;5030539;28;20021;-44
2023/04/17 04:35:29;;;;;;;17.85;12.43;;;10.50;99.90;;;;;;5030780;28;20048;-43
2023/04/17 04:38:00;;;;;;;15.43;11.82;;;10.50;99.90;;;;;;5030658;28;20422;-42
2023/04/17 04:40:29;;;;;;;16.77;11.82;;;10.60;99.90;;;;;;5030603;28;20087;-41
2023/04/17 04:42:55;;;;;;;16.83;12.13;;;10.50;99.90;;;;;;5030625;28;20076;-43
2023/04/17 04:45:21;;;;;;;24.40;15.90;;;10.60;99.90;;;;;;5030485;28;20018;-45
2023/04/17 04:47:47;;;;;;;20.58;13.98;;;10.50;99.90;;;;;;5030244;28;20032;-45
2023/04/17 04:50:12;;;;;;;19.67;14.68;;;10.40;99.90;;;;;;5032075;28;20095;-45
2023/04/17 04:52:38;;;;;;;21.27;15.15;;;10.40;99.90;;;;;;5030992;28;20021;-45
2023/04/17 04:55:04;;;;;;;21.88;14.27;;;10.40;99.90;;;;;;5029246;28;20028;-46
2023/04/17 04:57:30;;;;;;;19.35;14.50;;;10.40;99.90;;;;;;5031107;28;20092;-45
2023/04/17 04:59:55;;;;;;;22.20;15.45;;;10.40;99.90;;;;;;5031824;28;20021;-45
2023/04/17 05:02:21;;;;;;;21.30;14.63;;;10.40;99.90;;;;;;5030497;28;20025;-48
2023/04/17 05:04:46;;;;;;;20.83;15.05;;;10.40;99.90;;;;;;5030879;28;20034;-47
2023/04/17 05:07:12;;;;;;;17.83;13.43;;;10.40;99.90;;;;;;5029898;28;20040;-45
2023/04/17 05:09:38;;;;;;;19.02;13.70;;;10.40;99.90;;;;;;5030543;28;20094;-43
2023/04/17 05:12:03;;;;;;;18.10;13.23;;;10.40;99.90;;;;;;5030481;28;20113;-45
2023/04/17 05:14:29;;;;;;;20.38;14.85;;;10.40;99.90;;;;;;5032804;28;20022;-44
2023/04/17 05:16:54;;;;;;;20.77;14.32;;;10.40;99.90;;;;;;5033778;28;20021;-45
2023/04/17 05:19:20;;;;;;;19.02;13.45;;;10.40;99.90;;;;;;5035144;28;20479;-46
2023/04/17 05:21:46;;;;;;;19.02;14.75;;;10.50;99.90;;;;;;5034496;28;20028;-45
2023/04/17 05:24:12;;;;;;;19.05;13.68;;;10.40;99.90;;;;;;5033949;28;20030;-43
2023/04/17 05:26:37;;;;;;;19.13;13.43;;;10.40;99.90;;;;;;5033665;28;20491;-45
2023/04/17 05:29:03;;;;;;;17.42;12.75;;;10.40;99.90;;;;;;5033880;28;20028;-45
2023/04/17 05:31:29;;;;;;;17.67;12.95;;;10.40;99.90;;;;;;5033717;28;20025;-48
2023/04/17 05:33:54;;;;;;;18.45;12.98;;;10.40;99.90;;;;;;5033533;28;20472;-43
2023/04/17 05:36:21;;;;;;;18.85;13.35;;;10.40;99.90;;;;;;5033513;28;20021;-48
2023/04/17 05:38:47;;;;;;;18.20;13.50;;;10.40;99.90;;;;;;5034578;28;20490;-47
2023/04/17 05:41:13;;;;;;;19.85;12.18;;;10.40;99.90;;;;;;5033534;28;20463;-47
2023/04/17 05:43:38;;;;;;;18.63;13.45;;;10.40;99.90;;;;;;5033737;28;20104;-45
2023/04/17 05:46:04;;;;;;;17.02;12.43;;;10.40;99.90;;;;;;5033543;28;20361;-44
2023/04/17 05:48:30;;;;;;;16.88;11.93;;;10.40;99.90;;;;;;5034140;28;20034;-45
2023/04/17 05:50:56;;;;;;;18.05;12.32;;;10.40;99.90;;;;;;5034918;28;20079;-45
2023/04/17 05:53:21;;;;;;;16.48;12.40;;;10.50;99.90;;;;;;5034573;28;20025;-48
2023/04/17 05:55:47;;;;;;;16.83;12.52;;;10.40;99.90;;;;;;5033634;28;20435;-48
2023/04/17 05:58:13;;;;;;;16.80;12.20;;;10.50;99.90;;;;;;5033930;28;20499;-45
2023/04/17 06:00:41;;;;;;;17.67;11.98;;;10.50;99.90;;;;;;5034482;28;20064;-45
2023/04/17 06:03:07;;;;;;;16.00;11.85;;;10.50;99.90;;;;;;5032875;28;20040;-44
2023/04/17 06:05:34;;;;;;;19.08;12.10;;;10.50;99.90;;;;;;5033872;28;20073;-45
2023/04/17 06:08:00;;;;;;;18.45;12.30;;;10.50;99.90;;;;;;5032935;28;20064;-48
2023/04/17 06:10:26;;;;;;;16.50;11.50;;;10.50;99.90;;;;;;5035473;28;20108;-45
2023/04/17 06:12:52;;;;;;;17.77;11.95;;;10.50;99.90;;;;;;5034384;28;20044;-43
2023/04/17 06:15:18;;;;;;;17.70;12.27;;;10.50;99.90;;;;;;5034655;28;20033;-44
2023/04/17 06:17:43;;;;;;;16.88;11.93;;;10.50;99.90;;;;;;5033413;28;20092;-44
2023/04/17 06:20:10;;;;;;;15.05;11.73;;;10.50;99.90;;;;;;5034388;28;20031;-45
2023/04/17 06:22:39;;;;;;;16.00;11.70;;;10.50;99.90;;;;;;5033188;28;20040;-45
2023/04/17 06:25:06;;;;;;;14.95;11.27;;;10.50;99.90;;;;;;5033927;28;20414;-45
2023/04/17 06:27:32;;;;;;;14.38;10.90;;;10.50;99.90;;;;;;5032883;28;20029;-45
2023/04/17 06:29:58;;;;;;;16.02;11.50;;;10.50;99.90;;;;;;5032476;28;20382;-43
2023/04/17 06:32:24;;;;;;;16.05;11.38;;;10.50;99.90;;;;;;5033209;28;20034;-46
2023/04/17 06:34:49;;;;;;;15.15;11.52;;;10.50;99.90;;;;;;5032992;28;20631;-45
2023/04/17 06:37:15;;;;;;;15.57;11.20;;;10.50;99.90;;;;;;5031917;28;20067;-45
2023/04/17 06:39:41;;;;;;;19.40;14.60;;;10.50;99.90;;;;;;5032235;28;20022;-47
2023/04/17 06:42:06;;;;;;;18.45;13.52;;;10.40;99.90;;;;;;5034015;28;20026;-37
2023/04/17 06:44:32;;;;;;;19.42;12.95;;;10.40;99.90;;;;;;5032174;28;20167;-37
2023/04/17 06:47:02;;;;;;;19.20;13.30;;;10.40;99.90;;;;;;5032162;28;20400;-36
2023/04/17 06:49:30;;;;;;;17.17;12.90;;;10.40;99.90;;;;;;5032195;28;20021;-37
2023/04/17 06:51:57;;;;;;;19.13;13.00;;;10.40;99.90;;;;;;5032622;28;20475;-38
2023/04/17 06:54:23;;;;;;;16.25;12.35;;;10.40;99.90;;;;;;5032198;28;20436;-36
2023/04/17 06:56:49;;;;;;;15.77;12.50;;;10.40;99.90;;;;;;5032220;28;20025;-39
2023/04/17 06:59:14;;;;;;;15.45;11.82;;;10.50;99.90;;;;;;5033058;28;20101;-36
2023/04/17 07:01:41;;;;;;;17.05;11.45;;;10.40;99.90;;;;;;5033351;28;20049;-37
2023/04/17 07:04:07;;;;;;;15.43;11.75;;;10.40;99.90;;;;;;5032947;28;20033;-37
2023/04/17 07:06:34;;;;;;;14.98;11.27;;;10.40;99.90;;;;;;5032189;28;20022;-39
2023/04/17 07:09:02;;;;;;;14.48;11.18;;;10.50;99.90;;;;;;5031912;28;20491;-39
2023/04/17 07:11:28;;;;;;;13.70;10.45;;;10.50;99.90;;;;;;5032474;28;20038;-37
2023/04/17 07:13:54;;;;;;;15.45;11.55;;;10.50;99.90;;;;;;5032231;28;20021;-39
2023/04/17 07:16:24;;;;;;;14.80;10.75;;;10.50;99.90;;;;;;5031133;28;20026;-37
2023/04/17 07:18:52;;;;;;;14.88;10.55;;;10.50;99.90;;;;;;5033039;28;20014;-36
2023/04/17 07:21:18;;;;;;;13.63;10.65;;;10.50;99.90;;;;;;5032123;28;20083;-37
2023/04/17 07:23:43;;;;;;;13.27;10.13;;;10.50;99.90;;;;;;5032733;28;20030;-36
2023/04/17 07:26:12;;;;;;;13.82;10.38;;;10.50;99.90;;;;;;5031801;28;20466;-37
2023/04/17 07:28:38;;;;;;;13.27;10.43;;;10.50;99.90;;;;;;5032161;28;20373;-38
2023/04/17 07:31:07;;;;;;;14.30;10.02;;;10.50;99.90;;;;;;5030900;28;20105;-36
2023/04/17 07:33:36;;;;;;;12.05;9.45;;;10.50;99.90;;;;;;5032091;28;20083;-34
2023/04/17 07:36:08;;;;;;;12.85;9.73;;;10.60;99.90;;;;;;5030995;28;20381;-38
2023/04/17 07:38:33;;;;;;;13.18;9.57;;;10.60;99.90;;;;;;5031746;28;20113;-36
2023/04/17 07:40:59;;;;;;;13.55;8.65;;;10.50;99.90;;;;;;5031788;28;20491;-37
2023/04/17 07:43:27;;;;;;;12.98;9.40;;;10.50;99.90;;;;;;5031360;28;20022;-34
2023/04/17 07:45:53;;;;;;;12.57;9.65;;;10.50;99.90;;;;;;5030601;28;20033;-36
2023/04/17 07:48:21;;;;;;;11.07;8.52;;;10.50;99.90;;;;;;5031939;28;20052;-37
2023/04/17 07:50:48;;;;;;;11.10;8.43;;;10.50;99.90;;;;;;5032212;28;20021;-36
2023/04/17 07:53:13;;;;;;;13.43;8.88;;;10.50;99.90;;;;;;5031282;28;20021;-34
2023/04/17 07:55:39;;;;;;;12.48;8.88;;;10.50;99.90;;;;;;5031106;28;20029;-36
2023/04/17 07:58:05;;;;;;;10.38;8.52;;;10.50;99.90;;;;;;5031444;28;20037;-36
2023/04/17 08:00:32;;;;;;;10.52;8.02;;;10.50;99.90;;;;;;5031302;28;20026;-37
2023/04/17 08:02:58;;;;;;;10.88;8.40;;;10.60;99.90;;;;;;5031164;28;20037;-38
2023/04/17 08:05:24;;;;;;;10.80;8.80;;;10.50;99.90;;;;;;5032243;28;20022;-34
2023/04/17 08:07:49;;;;;;;10.52;8.05;;;10.60;99.90;;;;;;5031805;28;20506;-37
2023/04/17 08:10:15;;;;;;;12.65;8.73;;;10.60;99.90;;;;;;5032318;28;20030;-38
2023/04/17 08:12:40;;;;;;;10.27;8.13;;;10.60;99.90;;;;;;5032260;28;20052;-37
2023/04/17 08:15:07;;;;;;;10.05;7.82;;;10.50;99.90;;;;;;5031968;28;20487;-37
2023/04/17 08:17:33;;;;;;;11.20;7.85;;;10.60;99.90;;;;;;5031452;28;20434;-37
2023/04/17 08:20:00;;;;;;;12.27;8.57;;;10.60;99.90;;;;;;5032507;28;20022;-36
2023/04/17 08:22:27;;;;;;;11.52;8.38;;;10.50;99.90;;;;;;5031631;28;20033;-34
2023/04/17 08:24:56;;;;;;;9.75;7.57;;;10.60;99.90;;;;;;5032244;28;20052;-39
2023/04/17 08:27:25;;;;;;;11.00;7.80;;;10.50;99.90;;;;;;5031266;28;20037;-38
2023/04/17 08:29:54;;;;;;;10.02;7.53;;;10.50;99.90;;;;;;5030228;28;20060;-35
2023/04/17 08:32:20;;;;;;;8.48;7.18;;;10.50;99.90;;;;;;5030734;28;20033;-39
2023/04/17 08:34:46;;;;;;;9.05;7.00;;;10.50;99.90;;;;;;5030613;28;20025;-37
2023/04/17 08:37:12;;;;;;;8.18;6.70;;;10.50;99.90;;;;;;5030635;28;20074;-38
2023/04/17 08:39:38;;;;;;;9.93;7.38;;;10.50;99.90;;;;;;5030738;28;20029;-34
2023/04/17 08:42:12;;;;;;;9.18;7.43;;;10.50;99.90;;;;;;5031659;28;20471;-36
2023/04/17 08:44:38;;;;;;;10.07;7.45;;;10.50;99.90;;;;;;5031466;28;20164;-34
2023/04/17 08:47:07;;;;;;;8.98;7.25;;;10.60;99.90;;;;;;5031181;28;20075;-34
2023/04/17 08:49:34;;;;;;;10.52;7.20;;;10.50;99.90;;;;;;5034594;28;20022;-39
2023/04/17 08:52:04;;;;;;;10.15;6.65;;;10.60;99.90;;;;;;5035498;28;20026;-34
2023/04/17 08:54:34;;;;;;;9.52;6.93;;;10.60;99.90;;;;;;5035259;28;20475;-36
2023/04/17 08:57:03;;;;;;;9.70;7.25;;;10.60;99.90;;;;;;5034891;28;20111;-35
2023/04/17 08:59:30;;;;;;;8.15;6.88;;;10.60;99.90;;;;;;5035060;28;20096;-35
2023/04/17 09:02:06;;;;;;;8.73;7.13;;;10.60;99.90;;;;;;5034641;28;20075;-38
2023/04/17 09:04:36;;;;;;;11.95;8.57;;;10.60;99.90;;;;;;5034159;28;20033;-37
2023/04/17 09:07:03;;;;;;;22.73;13.80;;;10.60;99.90;;;;;;5034143;28;20495;-36
2023/04/17 09:09:52;;;;;;;15.00;10.25;;;10.60;99.90;;;;;;5034569;28;20038;-36
2023/04/17 09:12:25;;;;;;;11.60;8.93;;;10.60;99.90;;;;;;5036308;28;20026;-34
2023/04/17 09:14:51;;;;;;;13.65;8.48;;;10.60;99.90;;;;;;5034287;28;20021;-39
2023/04/17 09:17:19;;;;;;;11.38;8.13;;;10.60;99.90;;;;;;5033502;28;20385;-37
2023/04/17 09:20:07;;;;;;;11.60;7.85;;;10.60;99.90;;;;;;5034437;28;20100;-36
2023/04/17 09:22:34;;;;;;;10.90;7.90;;;10.60;99.90;;;;;;5035135;28;20017;-34
2023/04/17 09:25:00;;;;;;;10.50;6.85;;;10.60;99.90;;;;;;5035085;28;20388;-39
2023/04/17 09:27:27;;;;;;;10.63;7.18;;;10.60;99.90;;;;;;5034547;28;20036;-38
2023/04/17 09:29:57;;;;;;;11.00;7.50;;;10.60;99.90;;;;;;5034308;28;20398;-35
2023/04/17 09:32:24;;;;;;;9.82;7.47;;;10.60;99.90;;;;;;5034438;28;20523;-38
2023/04/17 09:34:50;;;;;;;10.10;7.32;;;10.60;99.90;;;;;;5033447;28;20492;-39
2023/04/17 09:37:16;;;;;;;8.20;6.70;;;10.60;99.90;;;;;;5034607;28;20097;-36
2023/04/17 09:39:59;;;;;;;10.10;7.15;;;10.60;99.90;;;;;;5033616;28;20480;-39
2023/04/17 09:42:28;;;;;;;9.63;6.55;;;10.60;99.90;;;;;;5034570;28;20021;-39
2023/04/17 09:44:54;;;;;;;8.68;6.82;;;10.60;99.90;;;;;;5033930;28;20026;-36
2023/04/17 09:47:21;;;;;;;8.93;6.78;;;10.60;99.90;;;;;;5033691;28;20033;-39
2023/04/17 09:49:51;;;;;;;8.57;6.32;;;10.60;99.90;;;;;;5034110;28;20388;-37
2023/04/17 09:52:22;;;;;;;8.68;6.35;;;10.60;99.90;;;;;;5034167;28;20034;-39
2023/04/17 09:54:50;;;;;;;9.40;6.50;;;10.60;99.90;;;;;;5033726;28;20049;-36
2023/04/17 09:57:16;;;;;;;8.48;6.25;;;10.60;99.90;;;;;;5032619;28;20032;-35
2023/04/17 09:59:49;;;;;;;8.93;6.47;;;10.70;99.90;;;;;;5034957;28;20033;-39
2023/04/17 10:02:17;;;;;;;8.68;6.20;;;10.70;99.90;;;;;;5035203;28;20017;-35
2023/04/17 10:04:44;;;;;;;7.30;6.03;;;10.70;99.90;;;;;;5031346;28;20025;-34
2023/04/17 10:07:15;;;;;;;7.03;5.40;;;10.60;99.90;;;;;;5032710;28;20022;-37
2023/04/17 10:09:41;;;;;;;8.65;6.00;;;10.70;99.90;;;;;;5033262;28;20117;-34
2023/04/17 10:12:14;;;;;;;8.43;5.97;;;10.70;99.90;;;;;;5033402;28;20037;-36
2023/04/17 10:14:45;;;;;;;7.65;5.75;;;10.60;99.90;;;;;;5034075;28;20018;-36
2023/04/17 10:17:30;;;;;;;7.30;5.13;;;10.70;99.90;;;;;;5033782;28;20042;-37
2023/04/17 10:20:21;;;;;;;7.20;5.18;;;10.70;99.90;;;;;;5033606;28;20026;-38
2023/04/17 10:22:53;;;;;;;8.48;5.68;;;10.70;99.90;;;;;;5034015;28;20574;-35
2023/04/17 10:25:21;;;;;;;6.65;5.15;;;10.70;99.90;;;;;;5032518;28;20514;-39
2023/04/17 10:27:49;;;;;;;6.25;4.97;;;10.60;99.90;;;;;;5032696;28;20025;-38
2023/04/17 10:30:16;;;;;;;6.78;4.90;;;10.70;99.90;;;;;;5033496;28;20036;-34
2023/04/17 10:32:45;;;;;;;8.50;5.93;;;10.70;99.90;;;;;;5032534;28;20017;-36
2023/04/17 10:35:17;;;;;;;7.72;5.20;;;10.70;99.90;;;;;;5032374;28;20116;-45
2023/04/17 10:37:51;;;;;;;5.75;5.05;;;10.70;99.90;;;;;;5031776;28;20068;-46
2023/04/17 10:40:21;;;;;;;6.85;4.93;;;10.70;99.90;;;;;;5032313;28;20484;-46
2023/04/17 10:43:12;;;;;;;5.75;4.75;;;10.70;99.90;;;;;;5032430;28;20038;-46
2023/04/17 10:46:05;;;;;;;7.38;5.03;;;10.70;99.90;;;;;;5032156;28;20025;-39
2023/04/17 10:48:36;;;;;;;6.63;4.38;;;10.70;99.90;;;;;;5032669;28;20025;-39
2023/04/17 10:51:28;;;;;;;6.13;5.03;;;10.70;99.90;;;;;;5032216;28;20387;-37
2023/04/17 10:53:57;;;;;;;6.90;4.75;;;10.70;99.90;;;;;;5032647;28;20017;-37
2023/04/17 10:56:23;;;;;;;6.35;4.70;;;10.70;99.90;;;;;;5031878;28;20022;-37
2023/04/17 10:59:08;;;;;;;6.85;4.70;;;10.70;99.90;;;;;;5032243;28;20361;-34
2023/04/17 11:01:37;;;;;;;5.18;4.60;;;10.70;99.90;;;;;;5032060;28;20100;-40
2023/04/17 11:04:03;;;;;;;7.15;4.80;;;10.70;99.90;;;;;;5033175;28;20395;-36
2023/04/17 11:06:37;;;;;;;5.50;4.32;;;10.70;99.90;;;;;;5032615;28;20037;-34
2023/04/17 11:09:06;;;;;;;6.13;4.72;;;10.70;99.90;;;;;;5033065;28;20039;-37
2023/04/17 11:11:40;;;;;;;5.93;4.63;;;10.70;99.90;;;;;;5032743;28;20456;-38
2023/04/17 11:14:09;;;;;;;7.43;4.78;;;10.70;99.90;;;;;;5032993;28;20033;-36
2023/04/17 11:16:40;;;;;;;7.18;5.03;;;10.80;99.90;;;;;;5031160;28;20024;-36
2023/04/17 11:19:11;;;;;;;5.65;4.53;;;10.80;99.90;;;;;;5032341;28;20034;-40
2023/04/17 11:21:44;;;;;;;7.32;5.20;;;10.70;99.90;;;;;;5033144;28;20038;-36
2023/04/17 11:24:10;;;;;;;7.95;4.90;;;10.80;99.90;;;;;;5030663;28;20725;-34
2023/04/17 11:26:43;;;;;;;5.28;4.18;;;10.80;99.90;;;;;;5032645;28;20078;-38
2023/04/17 11:29:16;;;;;;;7.30;5.22;;;10.80;99.90;;;;;;5033186;28;20029;-37
2023/04/17 11:31:42;;;;;;;6.65;4.50;;;10.80;99.90;;;;;;5031581;28;20035;-37
2023/04/17 11:34:08;;;;;;;5.72;4.07;;;10.80;99.90;;;;;;5032011;28;20053;-34
2023/04/17 11:36:34;;;;;;;5.85;4.25;;;10.80;99.90;;;;;;5032337;28;20033;-36
2023/04/17 11:39:00;;;;;;;5.45;4.30;;;10.80;99.90;;;;;;5032676;28;20021;-34
2023/04/17 11:41:36;;;;;;;6.82;4.75;;;10.80;99.90;;;;;;5032438;28;20093;-39
2023/04/17 11:44:02;;;;;;;5.68;4.30;;;10.90;99.90;;;;;;5032341;28;20665;-37
2023/04/17 11:46:28;;;;;;;5.22;4.03;;;10.90;99.90;;;;;;5031179;28;20120;-36
2023/04/17 11:48:54;;;;;;;6.05;4.25;;;11.00;99.90;;;;;;5029991;28;20514;-34
2023/04/17 11:51:20;;;;;;;7.03;4.57;;;11.00;99.90;;;;;;5033216;28;20034;-37
2023/04/17 11:53:47;;;;;;;6.50;4.70;;;11.00;99.90;;;;;;5032535;28;20041;-35
2023/04/17 11:56:16;;;;;;;6.25;4.28;;;11.00;99.90;;;;;;5032213;28;20060;-34
2023/04/17 11:58:50;;;;;;;5.18;3.97;;;11.00;99.90;;;;;;5032005;28;20399;-35
2023/04/17 12:01:18;;;;;;;5.73;4.27;;;11.10;99.90;;;;;;5031764;28;20021;-36
2023/04/17 12:03:44;;;;;;;6.72;4.43;;;11.10;99.90;;;;;;5032227;28;20029;-39
2023/04/17 12:06:12;;;;;;;5.93;4.10;;;11.10;99.90;;;;;;5032128;28;20052;-34
2023/04/17 12:08:49;;;;;;;6.68;4.15;;;11.10;99.90;;;;;;5032594;28;20485;-36
2023/04/17 12:11:31;;;;;;;5.43;4.18;;;11.00;99.90;;;;;;5031976;28;20506;-35
2023/04/17 12:13:58;;;;;;;8.38;4.60;;;11.10;99.90;;;;;;5032170;28;20036;-37
2023/04/17 12:16:26;;;;;;;5.93;4.30;;;11.10;99.90;;;;;;5033105;28;20044;-36
2023/04/17 12:18:55;;;;;;;5.55;4.47;;;11.10;99.90;;;;;;5031822;28;20106;-36
2023/04/17 12:21:22;;;;;;;6.25;4.80;;;11.10;99.90;;;;;;5031193;28;20018;-34
2023/04/17 12:23:48;;;;;;;6.63;4.20;;;11.10;99.90;;;;;;5034183;28;20439;-36
2023/04/17 12:26:14;;;;;;;5.70;3.97;;;11.10;99.90;;;;;;5035354;28;20033;-34
2023/04/17 12:28:40;;;;;;;5.15;3.88;;;11.10;99.90;;;;;;5037191;28;20037;-34
2023/04/17 12:31:05;;;;;;;5.75;3.75;;;11.10;99.90;;;;;;5034953;28;20032;-39
2023/04/17 12:33:32;;;;;;;5.80;3.90;;;11.10;99.90;;;;;;5034914;28;20487;-36
2023/04/17 12:36:01;;;;;;;5.43;3.83;;;11.10;99.90;;;;;;5034323;28;20025;-37